Pagrindinis puslapis
METAR-TAF:

METAR-TAF

Oro uostai :

Swift Current, Saskačevanas, Kanada

platuma: 50-17N, ilguma: 107-41W, Aukštis: 818 m

Dabartinis oras

Ataskaita buvo paskelbta 12 minutes, ne 12:00 UTC
Vėjas 11 kt iš Pietvakarių
Temperatūra -1°C
Drėgmė 80%
Slėgis 1014 hPa
Matomumas: 14.5 km
Mažai debesys ne aukštis 17000 ft

METAR: CYYN 281200Z AUTO 22011KT 9SM FEW170 M01/M04 A2994 RMK ICG INTMT SLP169

Laikas: 06:12 (12:12 UTC)

Prognozė

Ataskaita buvo paskelbta 34 minutes, ne 11:38 UTC
Prognozė galioja nuo 28 metu 12 UTC su 28 metu 24 UTC
Vėjas 12 kt iš Vakarų/Pietvakarių
Matomumas: 10 km
Su prošvaistėmis ne aukštis 20000 ft
Tapsmas
nuo 28 metu 14 UTC su 28 metu 16 UTC
Vėjas 15 kt iš Vakarų

TAF: CYYN 281138Z 2812/2824 24012KT P6SM BKN200 BECMG 2814/2816 28015KT RMK FCST BASED ON AUTO OBS. NXT FCST BY 281800Z

Orai ataskaitas ir orų prognozės (METAR, TAF).

turimą stotys yra geltonos ir raudonos taškus žemėlapyje.

Perkelti pele per norėdami pamatyti stoties vardą.

Tada spustelėkite, norėdami matyti oro stebėjimo ir prognozės.

Norėdami pakeisti žemėlapį: spustelėkite ant žalios mygtukų su juodo kryžiaus žemyn,; žalią mygtuką su brūkšneliu, jei norite nutolinti; arba žalių rodyklių gretimoms žemėlapius.


METAR-TAF: